createdAt,value
2017-10-30T00:00:08.655Z,0
2017-10-30T00:01:17.275Z,0
2017-10-30T00:02:25.900Z,0
2017-10-30T00:03:34.523Z,0
2017-10-30T00:04:43.137Z,0
2017-10-30T00:05:51.761Z,0
2017-10-30T00:07:00.385Z,0
2017-10-30T00:08:09.001Z,0
2017-10-30T00:09:17.624Z,0
2017-10-30T00:10:26.249Z,0
2017-10-30T00:11:34.870Z,0
2017-10-30T00:12:43.497Z,0
2017-10-30T00:13:52.114Z,0
2017-10-30T00:15:00.740Z,0
2017-10-30T00:16:09.698Z,0
2017-10-30T00:17:18.309Z,0
2017-10-30T00:18:26.942Z,0
2017-10-30T00:19:35.566Z,0
2017-10-30T00:20:44.185Z,0
2017-10-30T00:21:52.807Z,0
2017-10-30T00:23:01.762Z,0
2017-10-30T00:24:10.379Z,0
2017-10-30T00:25:19.003Z,0
2017-10-30T00:26:27.619Z,0
2017-10-30T00:27:36.248Z,0
2017-10-30T00:28:44.870Z,0
2017-10-30T00:29:53.489Z,0
2017-10-30T00:31:02.111Z,0
2017-10-30T00:32:10.737Z,0
2017-10-30T00:33:19.356Z,0
2017-10-30T00:34:27.975Z,0
2017-10-30T00:35:36.613Z,0
2017-10-30T00:36:45.228Z,0
2017-10-30T00:37:53.850Z,0
2017-10-30T00:39:02.477Z,0
2017-10-30T00:40:11.093Z,0
2017-10-30T00:41:19.720Z,0
2017-10-30T00:42:28.339Z,0
2017-10-30T00:43:36.958Z,0
2017-10-30T00:44:45.587Z,0
2017-10-30T00:45:54.205Z,0
2017-10-30T00:47:02.825Z,0
2017-10-30T00:48:11.444Z,0
2017-10-30T00:49:20.067Z,0
2017-10-30T00:50:28.697Z,0
2017-10-30T00:51:37.319Z,0
2017-10-30T00:52:45.938Z,0
2017-10-30T00:53:54.563Z,0
2017-10-30T00:55:03.180Z,0
2017-10-30T00:56:11.804Z,0
2017-10-30T00:57:20.426Z,0
2017-10-30T00:58:29.047Z,0
2017-10-30T00:59:37.676Z,0
2017-10-30T01:00:46.295Z,0
2017-10-30T01:01:54.914Z,0
2017-10-30T01:03:03.547Z,0
2017-10-30T01:04:12.170Z,0
2017-10-30T01:05:21.113Z,0
2017-10-30T01:06:29.735Z,0
2017-10-30T01:07:38.361Z,0
2017-10-30T01:08:46.978Z,0
2017-10-30T01:09:55.602Z,0
2017-10-30T01:11:04.222Z,0
2017-10-30T01:12:12.850Z,0
2017-10-30T01:13:21.802Z,0
2017-10-30T01:14:30.423Z,0
2017-10-30T01:15:39.047Z,0
2017-10-30T01:16:47.675Z,0
2017-10-30T01:17:56.287Z,0
2017-10-30T01:19:04.914Z,0
2017-10-30T01:20:13.539Z,0
2017-10-30T01:21:22.155Z,0
2017-10-30T01:22:30.785Z,0
2017-10-30T01:23:39.408Z,0
2017-10-30T01:24:48.033Z,0
2017-10-30T01:25:56.658Z,0
2017-10-30T01:27:05.275Z,0
2017-10-30T01:28:13.896Z,0
2017-10-30T01:29:22.521Z,0
2017-10-30T01:30:31.133Z,0
2017-10-30T01:31:39.761Z,0
2017-10-30T01:32:48.726Z,0
2017-10-30T01:33:57.343Z,0
2017-10-30T01:35:05.965Z,0
2017-10-30T01:36:14.621Z,0
2017-10-30T01:37:23.212Z,0
2017-10-30T01:38:31.833Z,0
2017-10-30T01:39:40.450Z,0
2017-10-30T01:40:49.081Z,0
2017-10-30T01:41:58.033Z,0
2017-10-30T01:43:06.653Z,0
2017-10-30T01:44:15.602Z,0
2017-10-30T01:45:24.232Z,0
2017-10-30T01:46:32.855Z,0
2017-10-30T01:47:41.475Z,0
2017-10-30T01:48:50.091Z,0
2017-10-30T01:49:58.717Z,0
2017-10-30T01:51:07.341Z,0
2017-10-30T01:52:16.294Z,0
2017-10-30T01:53:24.922Z,0
2017-10-30T01:54:33.537Z,0
2017-10-30T01:55:42.162Z,0
2017-10-30T01:56:50.785Z,0
2017-10-30T01:57:59.401Z,0
2017-10-30T01:59:08.039Z,0
2017-10-30T02:00:16.652Z,0
2017-10-30T02:01:25.267Z,0
2017-10-30T02:02:33.891Z,0
2017-10-30T02:03:42.524Z,0
2017-10-30T02:04:51.142Z,0
2017-10-30T02:05:59.760Z,0
2017-10-30T02:07:08.387Z,0
2017-10-30T02:08:17.348Z,0
2017-10-30T02:09:25.973Z,0
2017-10-30T02:10:34.597Z,0
2017-10-30T02:11:43.214Z,0
2017-10-30T02:12:51.843Z,0
2017-10-30T02:14:00.462Z,0
2017-10-30T02:15:09.087Z,0
2017-10-30T02:16:17.700Z,0
2017-10-30T02:17:26.326Z,0
2017-10-30T02:18:34.951Z,0
2017-10-30T02:19:43.578Z,0
2017-10-30T02:20:52.192Z,0
2017-10-30T02:22:00.821Z,0
2017-10-30T02:23:09.441Z,0
2017-10-30T02:24:18.063Z,0
2017-10-30T02:25:26.686Z,0
2017-10-30T02:26:35.305Z,0
2017-10-30T02:27:43.929Z,0
2017-10-30T02:28:52.882Z,0
2017-10-30T02:30:01.502Z,0
2017-10-30T02:31:10.132Z,0
2017-10-30T02:32:18.749Z,0
2017-10-30T02:33:27.369Z,0
2017-10-30T02:34:35.996Z,0
2017-10-30T02:35:44.946Z,0
2017-10-30T02:36:53.565Z,0
2017-10-30T02:38:02.185Z,0
2017-10-30T02:39:10.803Z,0
2017-10-30T02:40:19.431Z,0
2017-10-30T02:41:28.051Z,0
2017-10-30T02:42:36.669Z,0
2017-10-30T02:43:45.298Z,0
2017-10-30T02:44:53.919Z,0
2017-10-30T02:46:02.535Z,0
2017-10-30T02:47:11.157Z,0
2017-10-30T02:48:19.785Z,0
2017-10-30T02:49:28.409Z,0
2017-10-30T02:50:37.026Z,0
2017-10-30T02:51:45.652Z,0
2017-10-30T02:52:54.604Z,0
2017-10-30T02:54:03.261Z,0
2017-10-30T02:55:12.219Z,0
2017-10-30T02:56:20.841Z,0
2017-10-30T02:57:29.460Z,0
2017-10-30T02:58:38.090Z,0
2017-10-30T02:59:46.712Z,0
2017-10-30T03:00:55.667Z,0
2017-10-30T03:02:04.645Z,0
2017-10-30T03:03:13.263Z,0
2017-10-30T03:04:21.883Z,0
2017-10-30T03:05:30.510Z,0
2017-10-30T03:06:39.124Z,0
2017-10-30T03:07:47.747Z,0
2017-10-30T03:08:56.365Z,0
2017-10-30T03:10:05.322Z,0
2017-10-30T03:11:13.950Z,0
2017-10-30T03:12:22.571Z,0
2017-10-30T03:13:31.189Z,0
2017-10-30T03:14:39.815Z,0
2017-10-30T03:15:48.437Z,0
2017-10-30T03:16:57.052Z,0
2017-10-30T03:18:05.670Z,0
2017-10-30T03:19:14.298Z,0
2017-10-30T03:20:22.914Z,0
2017-10-30T03:21:31.541Z,0
2017-10-30T03:22:40.487Z,0
2017-10-30T03:23:49.114Z,0
2017-10-30T03:24:57.737Z,0
2017-10-30T03:26:06.354Z,0
2017-10-30T03:27:14.973Z,0
2017-10-30T03:28:23.596Z,0
2017-10-30T03:29:32.209Z,0
2017-10-30T03:30:40.834Z,0
2017-10-30T03:31:49.463Z,0
2017-10-30T03:32:58.078Z,0
2017-10-30T03:34:06.697Z,0
2017-10-30T03:35:15.321Z,0
2017-10-30T03:36:23.944Z,0
2017-10-30T03:37:32.566Z,0
2017-10-30T03:38:41.179Z,0
2017-10-30T03:39:49.802Z,0
2017-10-30T03:40:58.425Z,0
2017-10-30T03:42:07.042Z,0
2017-10-30T03:43:15.671Z,0
2017-10-30T03:44:24.285Z,0
2017-10-30T03:45:32.909Z,0
2017-10-30T03:46:41.534Z,0
2017-10-30T03:47:50.148Z,0
2017-10-30T03:48:58.774Z,0
2017-10-30T03:50:07.397Z,0
2017-10-30T03:51:16.022Z,0
2017-10-30T03:52:24.643Z,0
2017-10-30T03:53:33.258Z,0
2017-10-30T03:54:41.883Z,0
2017-10-30T03:55:50.512Z,0
2017-10-30T03:56:59.130Z,0
2017-10-30T03:58:07.752Z,0
2017-10-30T03:59:16.384Z,0
2017-10-30T04:00:25.018Z,0
2017-10-30T04:01:33.957Z,0
2017-10-30T04:02:42.587Z,0
2017-10-30T04:03:51.541Z,0
2017-10-30T04:05:00.166Z,0
2017-10-30T04:06:08.781Z,0
2017-10-30T04:07:17.407Z,0
2017-10-30T04:08:26.030Z,0
2017-10-30T04:09:34.653Z,0
2017-10-30T04:10:43.270Z,0
2017-10-30T04:11:52.230Z,0
2017-10-30T04:13:00.846Z,0
2017-10-30T04:14:09.464Z,0
2017-10-30T04:15:18.096Z,0
2017-10-30T04:16:26.717Z,0
2017-10-30T04:17:35.336Z,0
2017-10-30T04:18:43.959Z,0
2017-10-30T04:19:52.576Z,0
2017-10-30T04:21:01.201Z,0
2017-10-30T04:22:09.823Z,0
2017-10-30T04:23:18.438Z,0
2017-10-30T04:24:27.412Z,0
2017-10-30T04:25:36.028Z,0
2017-10-30T04:26:44.646Z,0
2017-10-30T04:27:53.270Z,0
2017-10-30T04:29:01.895Z,0
2017-10-30T04:30:10.512Z,0
2017-10-30T04:31:19.464Z,0
2017-10-30T04:32:28.094Z,0
2017-10-30T04:33:36.701Z,0
2017-10-30T04:34:45.332Z,0
2017-10-30T04:35:54.278Z,0
2017-10-30T04:37:02.900Z,0
2017-10-30T04:38:11.525Z,0
2017-10-30T04:39:20.140Z,0
2017-10-30T04:40:28.778Z,0
2017-10-30T04:41:37.387Z,0
2017-10-30T04:42:46.015Z,0
2017-10-30T04:43:54.636Z,0
2017-10-30T04:45:03.253Z,0
2017-10-30T04:46:11.878Z,0
2017-10-30T04:47:20.500Z,0
2017-10-30T04:48:29.121Z,0
2017-10-30T04:49:37.739Z,0
2017-10-30T04:50:46.361Z,0
2017-10-30T04:51:54.990Z,0
2017-10-30T04:53:03.611Z,0
2017-10-30T04:54:12.230Z,0
2017-10-30T04:55:20.860Z,0
2017-10-30T04:56:29.479Z,0
2017-10-30T04:57:38.092Z,0
2017-10-30T04:58:46.730Z,0
2017-10-30T04:59:55.339Z,0
2017-10-30T05:01:03.952Z,0
2017-10-30T05:02:12.579Z,0
2017-10-30T05:03:21.200Z,0
2017-10-30T05:04:29.830Z,0
2017-10-30T05:05:38.780Z,0
2017-10-30T05:06:47.396Z,0
2017-10-30T05:07:56.017Z,0
2017-10-30T05:09:04.643Z,0
2017-10-30T05:10:13.257Z,0
2017-10-30T05:11:21.882Z,0
2017-10-30T05:12:30.506Z,0
2017-10-30T05:13:39.126Z,0
2017-10-30T05:14:47.748Z,0
2017-10-30T05:15:56.376Z,0
2017-10-30T05:17:04.998Z,0
2017-10-30T05:18:13.619Z,0
2017-10-30T05:19:22.235Z,0
2017-10-30T05:20:30.855Z,0
2017-10-30T05:21:39.479Z,0
2017-10-30T05:22:48.097Z,0
2017-10-30T05:23:56.724Z,0
2017-10-30T05:25:05.349Z,0
2017-10-30T05:26:13.966Z,0
2017-10-30T05:27:22.586Z,0
2017-10-30T05:28:31.214Z,0
2017-10-30T05:29:39.833Z,0
2017-10-30T05:30:48.453Z,0
2017-10-30T05:31:57.075Z,0
2017-10-30T05:33:05.688Z,0
2017-10-30T05:34:14.316Z,0
2017-10-30T05:35:22.937Z,0
2017-10-30T05:36:31.553Z,0
2017-10-30T05:37:40.185Z,0
2017-10-30T05:38:48.803Z,0
2017-10-30T05:39:57.421Z,0
2017-10-30T05:41:06.077Z,0
2017-10-30T05:42:14.657Z,0
2017-10-30T05:43:23.290Z,0
2017-10-30T05:44:31.907Z,0
2017-10-30T05:45:40.527Z,0
2017-10-30T05:46:49.153Z,0
2017-10-30T05:47:57.769Z,0
2017-10-30T05:49:06.724Z,4
2017-10-30T05:50:15.342Z,4
2017-10-30T05:51:23.963Z,0
2017-10-30T05:52:32.595Z,4
2017-10-30T05:53:41.216Z,4
2017-10-30T05:54:49.834Z,4
2017-10-30T05:55:58.466Z,4
2017-10-30T05:57:07.084Z,4
2017-10-30T05:58:16.034Z,8
2017-10-30T05:59:24.660Z,4
2017-10-30T06:00:33.282Z,8
2017-10-30T06:01:41.899Z,12
2017-10-30T06:02:50.520Z,12
2017-10-30T06:03:59.143Z,12
2017-10-30T06:05:07.772Z,16
2017-10-30T06:06:16.391Z,20
2017-10-30T06:07:25.008Z,24
2017-10-30T06:08:33.974Z,24
2017-10-30T06:09:42.595Z,32
2017-10-30T06:10:51.224Z,32
2017-10-30T06:11:59.840Z,36
2017-10-30T06:13:08.460Z,44
2017-10-30T06:14:17.088Z,44
2017-10-30T06:15:25.710Z,44
2017-10-30T06:16:34.332Z,44
2017-10-30T06:17:42.953Z,48
2017-10-30T06:18:51.573Z,52
2017-10-30T06:20:00.202Z,56
2017-10-30T06:21:08.824Z,68
2017-10-30T06:22:17.445Z,76
2017-10-30T06:23:26.076Z,88
2017-10-30T06:24:34.695Z,92
2017-10-30T06:25:43.314Z,104
2017-10-30T06:26:51.946Z,112
2017-10-30T06:28:00.569Z,128
2017-10-30T06:29:09.186Z,132
2017-10-30T06:30:17.809Z,140
2017-10-30T06:31:26.431Z,148
2017-10-30T06:32:35.060Z,152
2017-10-30T06:33:43.676Z,148
2017-10-30T06:34:52.292Z,152
2017-10-30T06:36:00.919Z,148
2017-10-30T06:37:09.541Z,156
2017-10-30T06:38:18.155Z,168
2017-10-30T06:39:26.790Z,180
2017-10-30T06:40:35.406Z,196
2017-10-30T06:41:44.036Z,216
2017-10-30T06:42:52.654Z,236
2017-10-30T06:44:01.274Z,260
2017-10-30T06:45:09.907Z,292
2017-10-30T06:46:18.849Z,320
2017-10-30T06:47:27.477Z,356
2017-10-30T06:48:36.097Z,384
2017-10-30T06:49:44.718Z,408
2017-10-30T06:50:53.347Z,428
2017-10-30T06:52:01.972Z,436
2017-10-30T06:53:10.588Z,436
2017-10-30T06:54:19.212Z,432
2017-10-30T06:55:27.839Z,448
2017-10-30T06:56:36.455Z,500
2017-10-30T06:57:45.082Z,568
2017-10-30T06:58:53.704Z,596
2017-10-30T07:00:02.323Z,604
2017-10-30T07:01:10.954Z,620
2017-10-30T07:02:19.573Z,664
2017-10-30T07:03:28.201Z,680
2017-10-30T07:04:36.829Z,664
2017-10-30T07:05:45.443Z,680
2017-10-30T07:06:54.066Z,720
2017-10-30T07:08:02.693Z,736
2017-10-30T07:09:11.307Z,764
2017-10-30T07:10:19.941Z,800
2017-10-30T07:11:28.901Z,832
2017-10-30T07:12:37.523Z,836
2017-10-30T07:13:46.143Z,816
2017-10-30T07:14:54.771Z,800
2017-10-30T07:16:03.393Z,828
2017-10-30T07:17:12.011Z,832
2017-10-30T07:18:20.630Z,876
2017-10-30T07:19:29.258Z,916
2017-10-30T07:20:37.878Z,964
2017-10-30T07:21:46.500Z,1020
2017-10-30T07:22:55.124Z,1084
2017-10-30T07:24:03.754Z,1104
2017-10-30T07:25:12.706Z,1116
2017-10-30T07:26:21.329Z,1096
2017-10-30T07:27:29.955Z,1100
2017-10-30T07:28:38.910Z,1120
2017-10-30T07:29:47.531Z,1164
2017-10-30T07:30:56.152Z,1200
2017-10-30T07:32:04.772Z,1244
2017-10-30T07:33:13.403Z,1280
2017-10-30T07:34:22.024Z,1356
2017-10-30T07:35:30.646Z,1404
2017-10-30T07:36:39.276Z,1440
2017-10-30T07:37:47.890Z,1440
2017-10-30T07:38:56.515Z,1428
2017-10-30T07:40:05.134Z,1420
2017-10-30T07:41:13.757Z,1412
2017-10-30T07:42:22.382Z,1352
2017-10-30T07:43:31.331Z,1320
2017-10-30T07:44:39.960Z,1276
2017-10-30T07:45:48.908Z,1224
2017-10-30T07:46:57.537Z,1180
2017-10-30T07:48:06.162Z,1168
2017-10-30T07:49:14.785Z,1204
2017-10-30T07:50:23.408Z,1256
2017-10-30T07:51:32.038Z,1368
2017-10-30T07:52:40.659Z,1544
2017-10-30T07:53:49.280Z,1760
2017-10-30T07:54:58.249Z,2000
2017-10-30T07:56:06.865Z,2088
2017-10-30T07:57:15.487Z,1968
2017-10-30T07:58:24.115Z,1968
2017-10-30T07:59:32.729Z,1908
2017-10-30T08:00:41.363Z,1904
2017-10-30T08:01:49.985Z,1996
2017-10-30T08:02:58.607Z,2080
2017-10-30T08:04:07.239Z,2092
2017-10-30T08:05:15.858Z,1936
2017-10-30T08:06:24.481Z,1828
2017-10-30T08:07:33.109Z,1792
2017-10-30T08:08:41.731Z,1888
2017-10-30T08:09:50.347Z,1980
2017-10-30T08:10:58.976Z,2088
2017-10-30T08:12:07.606Z,2068
2017-10-30T08:13:16.219Z,2024
2017-10-30T08:14:24.850Z,2012
2017-10-30T08:15:33.472Z,2012
2017-10-30T08:16:42.098Z,2044
2017-10-30T08:17:50.724Z,2108
2017-10-30T08:18:59.341Z,2140
2017-10-30T08:20:07.971Z,2152
2017-10-30T08:21:16.595Z,2124
2017-10-30T08:22:25.207Z,2080
2017-10-30T08:23:33.837Z,2016
2017-10-30T08:24:42.463Z,1960
2017-10-30T08:25:51.086Z,1900
2017-10-30T08:26:59.706Z,1856
2017-10-30T08:28:08.334Z,1820
2017-10-30T08:29:16.958Z,1776
2017-10-30T08:30:25.583Z,1768
2017-10-30T08:31:34.204Z,1832
2017-10-30T08:32:42.828Z,1928
2017-10-30T08:33:51.454Z,1960
2017-10-30T08:35:00.404Z,2040
2017-10-30T08:36:09.036Z,2136
2017-10-30T08:37:17.654Z,2104
2017-10-30T08:38:26.280Z,1924
2017-10-30T08:39:34.906Z,1808
2017-10-30T08:40:43.858Z,1732
2017-10-30T08:41:52.488Z,1656
2017-10-30T08:43:01.116Z,1608
2017-10-30T08:44:09.744Z,1624
2017-10-30T08:45:18.369Z,1580
2017-10-30T08:46:26.994Z,1488
2017-10-30T08:47:35.619Z,1472
2017-10-30T08:48:44.249Z,1592
2017-10-30T08:49:52.867Z,1760
2017-10-30T08:51:01.505Z,1640
2017-10-30T08:52:10.131Z,1952
2017-10-30T08:53:18.750Z,2152
2017-10-30T08:54:27.377Z,2480
2017-10-30T08:55:36.014Z,2536
2017-10-30T08:56:44.622Z,2632
2017-10-30T08:57:53.247Z,2840
2017-10-30T08:59:02.194Z,2872
2017-10-30T09:00:10.822Z,3344
2017-10-30T09:01:19.446Z,3676
2017-10-30T09:02:28.067Z,3620
2017-10-30T09:03:36.689Z,3444
2017-10-30T09:04:45.319Z,3448
2017-10-30T09:05:53.939Z,3012
2017-10-30T09:07:02.888Z,3292
2017-10-30T09:08:11.519Z,2980
2017-10-30T09:09:20.141Z,3020
2017-10-30T09:10:29.090Z,3016
2017-10-30T09:11:37.717Z,2864
2017-10-30T09:12:46.672Z,2720
2017-10-30T09:13:55.295Z,2520
2017-10-30T09:15:03.918Z,2264
2017-10-30T09:16:12.539Z,2096
2017-10-30T09:17:21.170Z,2072
2017-10-30T09:18:29.792Z,2128
2017-10-30T09:19:38.416Z,2196
2017-10-30T09:20:47.045Z,2132
2017-10-30T09:21:55.666Z,2176
2017-10-30T09:23:04.287Z,2268
2017-10-30T09:24:12.915Z,2136
2017-10-30T09:25:21.542Z,1896
2017-10-30T09:26:30.160Z,1780
2017-10-30T09:27:38.793Z,1920
2017-10-30T09:28:47.415Z,2372
2017-10-30T09:29:56.040Z,2752
2017-10-30T09:31:04.670Z,2968
2017-10-30T09:32:13.285Z,2768
2017-10-30T09:33:21.915Z,3008
2017-10-30T09:34:30.535Z,3452
2017-10-30T09:35:39.174Z,3684
2017-10-30T09:36:47.792Z,3468
2017-10-30T09:37:56.414Z,3316
2017-10-30T09:39:05.042Z,3352
2017-10-30T09:40:13.670Z,3704
2017-10-30T09:41:22.623Z,4280
2017-10-30T09:42:31.248Z,3876
2017-10-30T09:43:39.875Z,3796
2017-10-30T09:44:48.841Z,3660
2017-10-30T09:45:57.467Z,3408
2017-10-30T09:47:06.087Z,3456
2017-10-30T09:48:14.728Z,3484
2017-10-30T09:49:23.343Z,3560
2017-10-30T09:50:31.959Z,3620
2017-10-30T09:51:40.587Z,3568
2017-10-30T09:52:49.216Z,3496
2017-10-30T09:53:57.839Z,3208
2017-10-30T09:55:06.463Z,3028
2017-10-30T09:56:15.093Z,2932
2017-10-30T09:57:23.720Z,2928
2017-10-30T09:58:32.674Z,2876
2017-10-30T09:59:41.293Z,2824
2017-10-30T10:00:49.918Z,2812
2017-10-30T10:01:58.548Z,2936
2017-10-30T10:03:07.168Z,3268
2017-10-30T10:04:15.796Z,3540
2017-10-30T10:05:24.422Z,3780
2017-10-30T10:06:33.052Z,4024
2017-10-30T10:07:41.681Z,4156
2017-10-30T10:08:50.303Z,4104
2017-10-30T10:09:58.927Z,4008
2017-10-30T10:11:07.553Z,3700
2017-10-30T10:12:16.192Z,3588
2017-10-30T10:13:24.809Z,3604
2017-10-30T10:14:33.433Z,3560
2017-10-30T10:15:42.063Z,3536
2017-10-30T10:16:50.689Z,3484
2017-10-30T10:17:59.307Z,3376
2017-10-30T10:19:07.938Z,3236
2017-10-30T10:20:16.565Z,3172
2017-10-30T10:21:25.184Z,3240
2017-10-30T10:22:33.811Z,3236
2017-10-30T10:23:42.441Z,3124
2017-10-30T10:24:51.065Z,3048
2017-10-30T10:25:59.697Z,2808
2017-10-30T10:27:08.315Z,2620
2017-10-30T10:28:16.943Z,2624
2017-10-30T10:29:25.568Z,2540
2017-10-30T10:30:34.187Z,2264
2017-10-30T10:31:42.816Z,2132
2017-10-30T10:32:51.444Z,1932
2017-10-30T10:34:00.070Z,2140
2017-10-30T10:35:08.703Z,1956
2017-10-30T10:36:17.650Z,1812
2017-10-30T10:37:26.277Z,2592
2017-10-30T10:38:34.902Z,2452
2017-10-30T10:39:43.519Z,2500
2017-10-30T10:40:52.152Z,2828
2017-10-30T10:42:00.777Z,2916
2017-10-30T10:43:09.411Z,2960
2017-10-30T10:44:18.033Z,2916
2017-10-30T10:45:26.653Z,2820
2017-10-30T10:46:35.280Z,2748
2017-10-30T10:47:43.908Z,2744
2017-10-30T10:48:52.530Z,2736
2017-10-30T10:50:01.155Z,2368
2017-10-30T10:51:09.784Z,2216
2017-10-30T10:52:18.409Z,2140
2017-10-30T10:53:27.032Z,1976
2017-10-30T10:54:35.668Z,2680
2017-10-30T10:55:44.290Z,2712
2017-10-30T10:56:52.918Z,2856
2017-10-30T10:58:01.537Z,3056
2017-10-30T10:59:10.167Z,3240
2017-10-30T11:00:18.793Z,3380
2017-10-30T11:01:27.420Z,3492
2017-10-30T11:02:36.043Z,3540
2017-10-30T11:03:44.673Z,3512
2017-10-30T11:04:53.293Z,3556
2017-10-30T11:06:01.919Z,3548
2017-10-30T11:07:10.558Z,3624
2017-10-30T11:08:19.524Z,3632
2017-10-30T11:09:28.144Z,3548
2017-10-30T11:10:36.766Z,2948
2017-10-30T11:11:45.389Z,2576
2017-10-30T11:12:54.026Z,2376
2017-10-30T11:14:02.648Z,2476
2017-10-30T11:15:11.271Z,2296
2017-10-30T11:16:19.905Z,2420
2017-10-30T11:17:28.532Z,2228
2017-10-30T11:18:37.151Z,2352
2017-10-30T11:19:45.781Z,3208
2017-10-30T11:20:54.408Z,3404
2017-10-30T11:22:03.029Z,3040
2017-10-30T11:23:11.657Z,3128
2017-10-30T11:24:20.280Z,3652
2017-10-30T11:25:28.913Z,3260
2017-10-30T11:26:37.537Z,3036
2017-10-30T11:27:46.160Z,2400
2017-10-30T11:28:54.788Z,2224
2017-10-30T11:30:03.417Z,2572
2017-10-30T11:31:12.037Z,3512
2017-10-30T11:32:20.667Z,3732
2017-10-30T11:33:29.627Z,3816
2017-10-30T11:34:38.258Z,3804
2017-10-30T11:35:47.212Z,2856
2017-10-30T11:36:55.838Z,3424
2017-10-30T11:38:04.467Z,3656
2017-10-30T11:39:13.088Z,3968
2017-10-30T11:40:21.720Z,3760
2017-10-30T11:41:30.343Z,3084
2017-10-30T11:42:38.970Z,2728
2017-10-30T11:43:47.943Z,2756
2017-10-30T11:44:56.563Z,3036
2017-10-30T11:46:05.188Z,3428
2017-10-30T11:47:13.814Z,3456
2017-10-30T11:48:22.445Z,3524
2017-10-30T11:49:31.069Z,3512
2017-10-30T11:50:40.043Z,3404
2017-10-30T11:51:48.674Z,3336
2017-10-30T11:52:57.641Z,3024
2017-10-30T11:54:06.605Z,2856
2017-10-30T11:55:15.228Z,2776
2017-10-30T11:56:23.862Z,2712
2017-10-30T11:57:32.817Z,2816
2017-10-30T11:58:41.438Z,2964
2017-10-30T11:59:50.067Z,3080
2017-10-30T12:00:58.707Z,3064
2017-10-30T12:02:07.325Z,3324
2017-10-30T12:03:15.957Z,3444
2017-10-30T12:04:24.588Z,3420
2017-10-30T12:05:33.211Z,3352
2017-10-30T12:06:41.832Z,3356
2017-10-30T12:07:50.468Z,3472
2017-10-30T12:08:59.087Z,3624
2017-10-30T12:10:07.719Z,3764
2017-10-30T12:11:16.347Z,3676
2017-10-30T12:12:24.968Z,4012
2017-10-30T12:13:33.596Z,3100
2017-10-30T12:14:42.219Z,2708
2017-10-30T12:15:50.844Z,3268
2017-10-30T12:16:59.805Z,3132
2017-10-30T12:18:08.762Z,3000
2017-10-30T12:19:17.385Z,2752
2017-10-30T12:20:26.019Z,2624
2017-10-30T12:21:34.643Z,2560
2017-10-30T12:22:43.268Z,2548
2017-10-30T12:23:51.893Z,2564
2017-10-30T12:25:00.517Z,2560
2017-10-30T12:26:09.484Z,1700
2017-10-30T12:27:18.107Z,2364
2017-10-30T12:28:26.734Z,2616
2017-10-30T12:29:35.364Z,2692
2017-10-30T12:30:43.982Z,2700
2017-10-30T12:31:52.611Z,2704
2017-10-30T12:33:01.238Z,2712
2017-10-30T12:34:09.872Z,2708
2017-10-30T12:35:18.500Z,2684
2017-10-30T12:36:27.122Z,2632
2017-10-30T12:37:36.078Z,2508
2017-10-30T12:38:44.703Z,2128
2017-10-30T12:39:53.330Z,2588
2017-10-30T12:41:01.966Z,2584
2017-10-30T12:42:10.920Z,2272
2017-10-30T12:43:19.544Z,2508
2017-10-30T12:44:28.179Z,2580
2017-10-30T12:45:36.806Z,2104
2017-10-30T12:46:45.432Z,2884
2017-10-30T12:47:54.068Z,3568
2017-10-30T12:49:02.693Z,2876
2017-10-30T12:50:11.318Z,3280
2017-10-30T12:51:19.950Z,3624
2017-10-30T12:52:28.573Z,3204
2017-10-30T12:53:37.203Z,3588
2017-10-30T12:54:45.826Z,2508
2017-10-30T12:55:54.452Z,2828
2017-10-30T12:57:03.081Z,1824
2017-10-30T12:58:11.709Z,2664
2017-10-30T12:59:20.332Z,3080
2017-10-30T13:00:28.962Z,2736
2017-10-30T13:01:37.591Z,2404
2017-10-30T13:02:46.211Z,2360
2017-10-30T13:03:54.840Z,2312
2017-10-30T13:05:03.470Z,2304
2017-10-30T13:06:12.092Z,2328
2017-10-30T13:07:20.726Z,2304
2017-10-30T13:08:29.349Z,2280
2017-10-30T13:09:37.978Z,2268
2017-10-30T13:10:46.607Z,2252
2017-10-30T13:11:55.560Z,2280
2017-10-30T13:13:04.190Z,1944
2017-10-30T13:14:12.819Z,1736
2017-10-30T13:15:21.439Z,2576
2017-10-30T13:16:30.069Z,1932
2017-10-30T13:17:38.698Z,2356
2017-10-30T13:18:47.321Z,2180
2017-10-30T13:19:55.946Z,2428
2017-10-30T13:21:04.586Z,3188
2017-10-30T13:22:13.211Z,2904
2017-10-30T13:23:21.840Z,3508
2017-10-30T13:24:30.459Z,3440
2017-10-30T13:25:39.087Z,3120
2017-10-30T13:26:47.713Z,3552
2017-10-30T13:27:56.335Z,3484
2017-10-30T13:29:04.973Z,2784
2017-10-30T13:30:13.591Z,2676
2017-10-30T13:31:22.222Z,2820
2017-10-30T13:32:30.852Z,3612
2017-10-30T13:33:39.472Z,3796
2017-10-30T13:34:48.101Z,3744
2017-10-30T13:35:56.735Z,2932
2017-10-30T13:37:05.365Z,2740
2017-10-30T13:38:13.992Z,2684
2017-10-30T13:39:22.610Z,2704
2017-10-30T13:40:31.240Z,2752
2017-10-30T13:41:39.870Z,2804
2017-10-30T13:42:48.490Z,3264
2017-10-30T13:43:57.118Z,3120
2017-10-30T13:45:05.748Z,3088
2017-10-30T13:46:14.374Z,3192
2017-10-30T13:47:22.999Z,3404
2017-10-30T13:48:31.959Z,3676
2017-10-30T13:49:40.582Z,3836
2017-10-30T13:50:49.214Z,3756
2017-10-30T13:51:57.831Z,3592
2017-10-30T13:53:06.464Z,3484
2017-10-30T13:54:15.104Z,3496
2017-10-30T13:55:23.715Z,3448
2017-10-30T13:56:32.338Z,3340
2017-10-30T13:57:41.301Z,3148
2017-10-30T13:58:49.936Z,3008
2017-10-30T13:59:58.891Z,2892
2017-10-30T14:01:07.512Z,2724
2017-10-30T14:02:16.141Z,2428
2017-10-30T14:03:25.107Z,2072
2017-10-30T14:04:33.734Z,1812
2017-10-30T14:05:42.368Z,1728
2017-10-30T14:06:50.989Z,1468
2017-10-30T14:07:59.614Z,992
2017-10-30T14:09:08.242Z,820
2017-10-30T14:10:16.861Z,712
2017-10-30T14:11:25.490Z,680
2017-10-30T14:12:34.121Z,672
2017-10-30T14:13:43.079Z,740
2017-10-30T14:14:51.708Z,768
2017-10-30T14:16:00.347Z,764
2017-10-30T14:17:08.972Z,728
2017-10-30T14:18:17.931Z,700
2017-10-30T14:19:26.567Z,684
2017-10-30T14:20:35.184Z,668
2017-10-30T14:21:43.813Z,596
2017-10-30T14:22:52.436Z,652
2017-10-30T14:24:01.061Z,748
2017-10-30T14:25:09.694Z,840
2017-10-30T14:26:18.317Z,968
2017-10-30T14:27:26.946Z,1092
2017-10-30T14:28:35.566Z,1104
2017-10-30T14:29:44.194Z,1068
2017-10-30T14:30:53.151Z,1000
2017-10-30T14:32:01.773Z,1016
2017-10-30T14:33:10.398Z,1112
2017-10-30T14:34:19.363Z,1240
2017-10-30T14:35:27.996Z,1312
2017-10-30T14:36:36.623Z,1316
2017-10-30T14:37:45.238Z,1288
2017-10-30T14:38:53.866Z,1252
2017-10-30T14:40:02.493Z,1264
2017-10-30T14:41:11.116Z,1264
2017-10-30T14:42:19.735Z,1204
2017-10-30T14:43:28.366Z,1160
2017-10-30T14:44:36.991Z,1104
2017-10-30T14:45:45.613Z,1024
2017-10-30T14:46:54.242Z,968
2017-10-30T14:48:02.866Z,1044
2017-10-30T14:49:11.491Z,1124
2017-10-30T14:50:20.112Z,1208
2017-10-30T14:51:28.736Z,1284
2017-10-30T14:52:37.369Z,1368
2017-10-30T14:53:45.992Z,1372
2017-10-30T14:54:54.618Z,1324
2017-10-30T14:56:03.250Z,1364
2017-10-30T14:57:11.872Z,1180
2017-10-30T14:58:20.497Z,1000
2017-10-30T14:59:29.133Z,888
2017-10-30T15:00:37.759Z,812
2017-10-30T15:01:46.374Z,712
2017-10-30T15:02:55.002Z,672
2017-10-30T15:04:03.627Z,664
2017-10-30T15:05:12.261Z,680
2017-10-30T15:06:21.203Z,648
2017-10-30T15:07:29.830Z,620
2017-10-30T15:08:38.457Z,588
2017-10-30T15:09:47.082Z,580
2017-10-30T15:10:55.702Z,628
2017-10-30T15:12:04.337Z,728
2017-10-30T15:13:12.960Z,832
2017-10-30T15:14:21.581Z,912
2017-10-30T15:15:30.205Z,920
2017-10-30T15:16:38.834Z,880
2017-10-30T15:17:47.458Z,848
2017-10-30T15:18:56.087Z,808
2017-10-30T15:20:04.706Z,784
2017-10-30T15:21:13.333Z,764
2017-10-30T15:22:21.964Z,744
2017-10-30T15:23:30.584Z,720
2017-10-30T15:24:39.216Z,708
2017-10-30T15:25:47.840Z,700
2017-10-30T15:26:56.465Z,696
2017-10-30T15:28:05.096Z,680
2017-10-30T15:29:13.716Z,668
2017-10-30T15:30:22.346Z,648
2017-10-30T15:31:31.301Z,628
2017-10-30T15:32:39.912Z,604
2017-10-30T15:33:48.877Z,576
2017-10-30T15:34:57.501Z,548
2017-10-30T15:36:06.130Z,524
2017-10-30T15:37:14.755Z,500
2017-10-30T15:38:23.373Z,476
2017-10-30T15:39:31.998Z,452
2017-10-30T15:40:40.630Z,432
2017-10-30T15:41:49.248Z,412
2017-10-30T15:42:57.876Z,396
2017-10-30T15:44:06.505Z,376
2017-10-30T15:45:15.130Z,360
2017-10-30T15:46:23.756Z,340
2017-10-30T15:47:32.388Z,324
2017-10-30T15:48:41.010Z,308
2017-10-30T15:49:49.639Z,288
2017-10-30T15:50:58.257Z,268
2017-10-30T15:52:06.884Z,252
2017-10-30T15:53:15.844Z,232
2017-10-30T15:54:24.467Z,212
2017-10-30T15:55:33.090Z,192